sensor_id;sensor_type;location;lat;lon;timestamp;P1;durP1;ratioP1;P2;durP2;ratioP2
15342;SDS011;7771;48.478;8.936;2023-04-24T00:00:32;2.10;;;1.03;;
15342;SDS011;7771;48.478;8.936;2023-04-24T00:02:58;1.50;;;0.90;;
15342;SDS011;7771;48.478;8.936;2023-04-24T00:05:27;1.30;;;0.90;;
15342;SDS011;7771;48.478;8.936;2023-04-24T00:07:53;1.47;;;0.80;;
15342;SDS011;7771;48.478;8.936;2023-04-24T00:10:21;1.20;;;0.80;;
15342;SDS011;7771;48.478;8.936;2023-04-24T00:12:47;2.37;;;0.90;;
15342;SDS011;7771;48.478;8.936;2023-04-24T00:15:15;1.83;;;0.80;;
15342;SDS011;7771;48.478;8.936;2023-04-24T00:17:41;1.00;;;0.70;;
15342;SDS011;7771;48.478;8.936;2023-04-24T00:20:09;2.10;;;0.83;;
15342;SDS011;7771;48.478;8.936;2023-04-24T00:22:37;0.60;;;0.60;;
15342;SDS011;7771;48.478;8.936;2023-04-24T00:25:04;0.93;;;0.80;;
15342;SDS011;7771;48.478;8.936;2023-04-24T00:27:31;2.23;;;0.70;;
15342;SDS011;7771;48.478;8.936;2023-04-24T00:30:00;1.27;;;0.70;;
15342;SDS011;7771;48.478;8.936;2023-04-24T00:32:27;0.60;;;0.50;;
15342;SDS011;7771;48.478;8.936;2023-04-24T00:34:54;0.67;;;0.63;;
15342;SDS011;7771;48.478;8.936;2023-04-24T00:37:22;1.77;;;0.90;;
15342;SDS011;7771;48.478;8.936;2023-04-24T00:39:49;0.97;;;0.60;;
15342;SDS011;7771;48.478;8.936;2023-04-24T00:42:16;2.50;;;0.67;;
15342;SDS011;7771;48.478;8.936;2023-04-24T00:44:42;1.47;;;0.70;;
15342;SDS011;7771;48.478;8.936;2023-04-24T00:47:09;2.27;;;0.80;;
15342;SDS011;7771;48.478;8.936;2023-04-24T00:49:37;1.33;;;0.70;;
15342;SDS011;7771;48.478;8.936;2023-04-24T00:52:04;2.17;;;0.80;;
15342;SDS011;7771;48.478;8.936;2023-04-24T00:54:33;0.73;;;0.73;;
15342;SDS011;7771;48.478;8.936;2023-04-24T00:57:02;1.00;;;0.73;;
15342;SDS011;7771;48.478;8.936;2023-04-24T00:59:28;1.43;;;1.07;;
15342;SDS011;7771;48.478;8.936;2023-04-24T01:01:55;2.70;;;1.20;;
15342;SDS011;7771;48.478;8.936;2023-04-24T01:04:22;4.00;;;1.77;;
15342;SDS011;7771;48.478;8.936;2023-04-24T01:06:49;2.03;;;1.03;;
15342;SDS011;7771;48.478;8.936;2023-04-24T01:09:15;1.10;;;0.80;;
15342;SDS011;7771;48.478;8.936;2023-04-24T01:11:42;1.53;;;0.87;;
15342;SDS011;7771;48.478;8.936;2023-04-24T01:14:09;2.63;;;1.13;;
15342;SDS011;7771;48.478;8.936;2023-04-24T01:16:37;1.33;;;0.80;;
15342;SDS011;7771;48.478;8.936;2023-04-24T01:19:04;1.67;;;1.17;;
15342;SDS011;7771;48.478;8.936;2023-04-24T01:21:31;1.50;;;0.97;;
15342;SDS011;7771;48.478;8.936;2023-04-24T01:23:58;1.80;;;1.30;;
15342;SDS011;7771;48.478;8.936;2023-04-24T01:26:24;2.03;;;1.13;;
15342;SDS011;7771;48.478;8.936;2023-04-24T01:28:51;2.67;;;1.40;;
15342;SDS011;7771;48.478;8.936;2023-04-24T01:31:19;3.10;;;1.20;;
15342;SDS011;7771;48.478;8.936;2023-04-24T01:33:46;1.00;;;0.90;;
15342;SDS011;7771;48.478;8.936;2023-04-24T01:36:13;1.63;;;1.13;;
15342;SDS011;7771;48.478;8.936;2023-04-24T01:38:40;2.30;;;1.20;;
15342;SDS011;7771;48.478;8.936;2023-04-24T01:41:07;1.07;;;1.00;;
15342;SDS011;7771;48.478;8.936;2023-04-24T01:43:34;1.43;;;0.77;;
15342;SDS011;7771;48.478;8.936;2023-04-24T01:46:02;2.13;;;0.90;;
15342;SDS011;7771;48.478;8.936;2023-04-24T01:48:29;2.67;;;1.10;;
15342;SDS011;7771;48.478;8.936;2023-04-24T01:50:56;3.07;;;0.90;;
15342;SDS011;7771;48.478;8.936;2023-04-24T01:53:23;2.57;;;1.27;;
15342;SDS011;7771;48.478;8.936;2023-04-24T01:55:51;1.57;;;1.03;;
15342;SDS011;7771;48.478;8.936;2023-04-24T01:58:17;3.87;;;1.00;;
15342;SDS011;7771;48.478;8.936;2023-04-24T02:00:45;1.87;;;0.90;;
15342;SDS011;7771;48.478;8.936;2023-04-24T02:03:13;2.00;;;1.03;;
15342;SDS011;7771;48.478;8.936;2023-04-24T02:05:39;1.30;;;1.00;;
15342;SDS011;7771;48.478;8.936;2023-04-24T02:08:06;1.40;;;0.87;;
15342;SDS011;7771;48.478;8.936;2023-04-24T02:10:33;2.57;;;1.03;;
15342;SDS011;7771;48.478;8.936;2023-04-24T02:13:00;2.63;;;1.00;;
15342;SDS011;7771;48.478;8.936;2023-04-24T02:15:27;2.83;;;0.90;;
15342;SDS011;7771;48.478;8.936;2023-04-24T02:17:54;1.37;;;0.60;;
15342;SDS011;7771;48.478;8.936;2023-04-24T02:20:20;3.23;;;0.80;;
15342;SDS011;7771;48.478;8.936;2023-04-24T02:22:47;1.23;;;0.80;;
15342;SDS011;7771;48.478;8.936;2023-04-24T02:25:14;0.80;;;0.80;;
15342;SDS011;7771;48.478;8.936;2023-04-24T02:27:41;0.60;;;0.60;;
15342;SDS011;7771;48.478;8.936;2023-04-24T02:30:08;2.50;;;1.00;;
15342;SDS011;7771;48.478;8.936;2023-04-24T02:32:37;3.00;;;0.77;;
15342;SDS011;7771;48.478;8.936;2023-04-24T02:35:03;1.00;;;0.80;;
15342;SDS011;7771;48.478;8.936;2023-04-24T02:37:30;0.73;;;0.73;;
15342;SDS011;7771;48.478;8.936;2023-04-24T02:39:57;0.70;;;0.70;;
15342;SDS011;7771;48.478;8.936;2023-04-24T02:42:24;0.93;;;0.70;;
15342;SDS011;7771;48.478;8.936;2023-04-24T02:44:51;0.70;;;0.70;;
15342;SDS011;7771;48.478;8.936;2023-04-24T02:47:18;0.87;;;0.80;;
15342;SDS011;7771;48.478;8.936;2023-04-24T02:49:45;2.03;;;1.00;;
15342;SDS011;7771;48.478;8.936;2023-04-24T02:52:13;3.63;;;0.90;;
15342;SDS011;7771;48.478;8.936;2023-04-24T02:54:41;2.00;;;0.90;;
15342;SDS011;7771;48.478;8.936;2023-04-24T02:57:07;1.03;;;0.70;;
15342;SDS011;7771;48.478;8.936;2023-04-24T02:59:36;1.70;;;0.70;;
15342;SDS011;7771;48.478;8.936;2023-04-24T03:02:03;0.93;;;0.80;;
15342;SDS011;7771;48.478;8.936;2023-04-24T03:04:31;1.33;;;0.80;;
15342;SDS011;7771;48.478;8.936;2023-04-24T03:06:58;1.33;;;1.23;;
15342;SDS011;7771;48.478;8.936;2023-04-24T03:09:25;3.03;;;1.10;;
15342;SDS011;7771;48.478;8.936;2023-04-24T03:11:53;3.07;;;1.20;;
15342;SDS011;7771;48.478;8.936;2023-04-24T03:14:20;2.50;;;0.97;;
15342;SDS011;7771;48.478;8.936;2023-04-24T03:16:46;1.07;;;0.97;;
15342;SDS011;7771;48.478;8.936;2023-04-24T03:19:14;0.97;;;0.80;;
15342;SDS011;7771;48.478;8.936;2023-04-24T03:21:40;1.17;;;0.73;;
15342;SDS011;7771;48.478;8.936;2023-04-24T03:24:08;1.90;;;0.70;;
15342;SDS011;7771;48.478;8.936;2023-04-24T03:26:36;1.00;;;0.90;;
15342;SDS011;7771;48.478;8.936;2023-04-24T03:29:02;1.60;;;0.80;;
15342;SDS011;7771;48.478;8.936;2023-04-24T03:31:30;1.60;;;0.60;;
15342;SDS011;7771;48.478;8.936;2023-04-24T03:33:57;0.93;;;0.67;;
15342;SDS011;7771;48.478;8.936;2023-04-24T03:36:24;2.03;;;1.10;;
15342;SDS011;7771;48.478;8.936;2023-04-24T03:38:52;1.87;;;0.70;;
15342;SDS011;7771;48.478;8.936;2023-04-24T03:41:19;0.97;;;0.77;;
15342;SDS011;7771;48.478;8.936;2023-04-24T03:43:46;1.73;;;1.00;;
15342;SDS011;7771;48.478;8.936;2023-04-24T03:46:13;1.00;;;0.90;;
15342;SDS011;7771;48.478;8.936;2023-04-24T03:48:40;1.80;;;0.80;;
15342;SDS011;7771;48.478;8.936;2023-04-24T03:51:07;3.17;;;0.63;;
15342;SDS011;7771;48.478;8.936;2023-04-24T03:53:33;1.50;;;0.73;;
15342;SDS011;7771;48.478;8.936;2023-04-24T03:56:00;1.77;;;0.80;;
15342;SDS011;7771;48.478;8.936;2023-04-24T03:58:27;2.23;;;1.00;;
15342;SDS011;7771;48.478;8.936;2023-04-24T04:00:54;1.23;;;0.80;;
15342;SDS011;7771;48.478;8.936;2023-04-24T04:03:21;1.73;;;1.00;;
15342;SDS011;7771;48.478;8.936;2023-04-24T04:05:48;1.67;;;0.90;;
15342;SDS011;7771;48.478;8.936;2023-04-24T04:08:15;2.40;;;1.23;;
15342;SDS011;7771;48.478;8.936;2023-04-24T04:10:42;2.97;;;1.30;;
15342;SDS011;7771;48.478;8.936;2023-04-24T04:13:10;1.80;;;1.40;;
15342;SDS011;7771;48.478;8.936;2023-04-24T04:15:38;1.23;;;1.00;;
15342;SDS011;7771;48.478;8.936;2023-04-24T04:18:04;1.90;;;1.00;;
15342;SDS011;7771;48.478;8.936;2023-04-24T04:20:32;1.10;;;0.93;;
15342;SDS011;7771;48.478;8.936;2023-04-24T04:22:59;1.73;;;0.73;;
15342;SDS011;7771;48.478;8.936;2023-04-24T04:25:26;1.77;;;1.20;;
15342;SDS011;7771;48.478;8.936;2023-04-24T04:27:53;5.00;;;1.50;;
15342;SDS011;7771;48.478;8.936;2023-04-24T04:30:21;1.63;;;1.10;;
15342;SDS011;7771;48.478;8.936;2023-04-24T04:32:48;3.90;;;1.73;;
15342;SDS011;7771;48.478;8.936;2023-04-24T04:35:15;2.57;;;1.20;;
15342;SDS011;7771;48.478;8.936;2023-04-24T04:37:43;1.80;;;1.27;;
15342;SDS011;7771;48.478;8.936;2023-04-24T04:40:11;1.37;;;1.17;;
15342;SDS011;7771;48.478;8.936;2023-04-24T04:42:39;2.57;;;1.30;;
15342;SDS011;7771;48.478;8.936;2023-04-24T04:45:07;1.53;;;1.03;;
15342;SDS011;7771;48.478;8.936;2023-04-24T04:47:35;5.73;;;1.10;;
15342;SDS011;7771;48.478;8.936;2023-04-24T04:50:02;1.23;;;1.00;;
15342;SDS011;7771;48.478;8.936;2023-04-24T04:52:30;1.90;;;0.90;;
15342;SDS011;7771;48.478;8.936;2023-04-24T04:54:57;1.17;;;0.93;;
15342;SDS011;7771;48.478;8.936;2023-04-24T04:57:24;2.03;;;1.20;;
15342;SDS011;7771;48.478;8.936;2023-04-24T04:59:52;1.73;;;1.10;;
15342;SDS011;7771;48.478;8.936;2023-04-24T05:02:19;2.17;;;1.20;;
15342;SDS011;7771;48.478;8.936;2023-04-24T05:04:46;1.83;;;1.73;;
15342;SDS011;7771;48.478;8.936;2023-04-24T05:07:15;2.13;;;1.23;;
15342;SDS011;7771;48.478;8.936;2023-04-24T05:09:42;2.47;;;1.20;;
15342;SDS011;7771;48.478;8.936;2023-04-24T05:12:08;1.27;;;1.13;;
15342;SDS011;7771;48.478;8.936;2023-04-24T05:14:35;1.40;;;1.10;;
15342;SDS011;7771;48.478;8.936;2023-04-24T05:17:02;1.83;;;1.43;;
15342;SDS011;7771;48.478;8.936;2023-04-24T05:19:30;1.43;;;1.27;;
15342;SDS011;7771;48.478;8.936;2023-04-24T05:21:57;2.83;;;1.47;;
15342;SDS011;7771;48.478;8.936;2023-04-24T05:24:24;2.33;;;1.60;;
15342;SDS011;7771;48.478;8.936;2023-04-24T05:26:51;2.53;;;1.50;;
15342;SDS011;7771;48.478;8.936;2023-04-24T05:29:17;2.80;;;1.30;;
15342;SDS011;7771;48.478;8.936;2023-04-24T05:31:45;4.37;;;1.43;;
15342;SDS011;7771;48.478;8.936;2023-04-24T05:34:11;4.37;;;1.77;;
15342;SDS011;7771;48.478;8.936;2023-04-24T05:36:39;2.70;;;1.50;;
15342;SDS011;7771;48.478;8.936;2023-04-24T05:39:05;3.30;;;1.53;;
15342;SDS011;7771;48.478;8.936;2023-04-24T05:41:32;2.17;;;2.00;;
15342;SDS011;7771;48.478;8.936;2023-04-24T05:43:59;2.33;;;1.80;;
15342;SDS011;7771;48.478;8.936;2023-04-24T05:46:26;4.77;;;1.87;;
15342;SDS011;7771;48.478;8.936;2023-04-24T05:48:54;4.80;;;2.00;;
15342;SDS011;7771;48.478;8.936;2023-04-24T05:51:21;3.13;;;2.03;;
15342;SDS011;7771;48.478;8.936;2023-04-24T05:53:49;2.47;;;1.80;;
15342;SDS011;7771;48.478;8.936;2023-04-24T05:56:16;2.00;;;1.80;;
15342;SDS011;7771;48.478;8.936;2023-04-24T05:58:45;4.57;;;1.90;;
15342;SDS011;7771;48.478;8.936;2023-04-24T06:01:10;3.57;;;1.87;;
15342;SDS011;7771;48.478;8.936;2023-04-24T06:03:40;2.97;;;1.83;;
15342;SDS011;7771;48.478;8.936;2023-04-24T06:06:06;3.17;;;1.73;;
15342;SDS011;7771;48.478;8.936;2023-04-24T06:08:32;2.27;;;1.80;;
15342;SDS011;7771;48.478;8.936;2023-04-24T06:11:00;2.77;;;2.00;;
15342;SDS011;7771;48.478;8.936;2023-04-24T06:13:27;4.27;;;2.30;;
15342;SDS011;7771;48.478;8.936;2023-04-24T06:15:54;2.73;;;2.00;;
15342;SDS011;7771;48.478;8.936;2023-04-24T06:18:21;5.63;;;3.00;;
15342;SDS011;7771;48.478;8.936;2023-04-24T06:20:47;7.13;;;3.37;;
15342;SDS011;7771;48.478;8.936;2023-04-24T06:23:15;5.17;;;3.30;;
15342;SDS011;7771;48.478;8.936;2023-04-24T06:25:43;4.13;;;2.97;;
15342;SDS011;7771;48.478;8.936;2023-04-24T06:28:09;2.43;;;2.07;;
15342;SDS011;7771;48.478;8.936;2023-04-24T06:30:37;3.23;;;2.47;;
15342;SDS011;7771;48.478;8.936;2023-04-24T06:33:04;4.50;;;3.00;;
15342;SDS011;7771;48.478;8.936;2023-04-24T06:35:31;3.23;;;2.37;;
15342;SDS011;7771;48.478;8.936;2023-04-24T06:37:58;2.20;;;1.70;;
15342;SDS011;7771;48.478;8.936;2023-04-24T06:40:26;2.33;;;1.80;;
15342;SDS011;7771;48.478;8.936;2023-04-24T06:42:53;3.00;;;1.73;;
15342;SDS011;7771;48.478;8.936;2023-04-24T06:45:20;1.60;;;1.50;;
15342;SDS011;7771;48.478;8.936;2023-04-24T06:47:46;2.23;;;1.70;;
15342;SDS011;7771;48.478;8.936;2023-04-24T06:50:13;3.60;;;2.50;;
15342;SDS011;7771;48.478;8.936;2023-04-24T06:52:40;3.47;;;1.87;;
15342;SDS011;7771;48.478;8.936;2023-04-24T06:55:08;1.87;;;1.50;;
15342;SDS011;7771;48.478;8.936;2023-04-24T06:57:36;2.30;;;1.60;;
15342;SDS011;7771;48.478;8.936;2023-04-24T07:00:04;1.83;;;1.73;;
15342;SDS011;7771;48.478;8.936;2023-04-24T07:02:31;2.47;;;1.47;;
15342;SDS011;7771;48.478;8.936;2023-04-24T07:04:58;4.13;;;1.70;;
15342;SDS011;7771;48.478;8.936;2023-04-24T07:07:26;2.63;;;2.10;;
15342;SDS011;7771;48.478;8.936;2023-04-24T07:09:53;3.90;;;2.27;;
15342;SDS011;7771;48.478;8.936;2023-04-24T07:12:21;1.63;;;1.27;;
15342;SDS011;7771;48.478;8.936;2023-04-24T07:14:50;2.17;;;1.20;;
15342;SDS011;7771;48.478;8.936;2023-04-24T07:17:15;1.67;;;1.27;;
15342;SDS011;7771;48.478;8.936;2023-04-24T07:19:42;1.60;;;1.10;;
15342;SDS011;7771;48.478;8.936;2023-04-24T07:22:09;1.93;;;1.33;;
15342;SDS011;7771;48.478;8.936;2023-04-24T07:24:35;3.57;;;2.07;;
15342;SDS011;7771;48.478;8.936;2023-04-24T07:27:03;2.33;;;1.40;;
15342;SDS011;7771;48.478;8.936;2023-04-24T07:29:31;1.40;;;1.30;;
15342;SDS011;7771;48.478;8.936;2023-04-24T07:31:57;2.27;;;1.77;;
15342;SDS011;7771;48.478;8.936;2023-04-24T07:34:25;2.80;;;1.30;;
15342;SDS011;7771;48.478;8.936;2023-04-24T07:36:52;1.53;;;1.20;;
15342;SDS011;7771;48.478;8.936;2023-04-24T07:39:20;3.83;;;1.60;;
15342;SDS011;7771;48.478;8.936;2023-04-24T07:41:48;1.70;;;1.53;;
15342;SDS011;7771;48.478;8.936;2023-04-24T07:44:14;2.90;;;1.57;;
15342;SDS011;7771;48.478;8.936;2023-04-24T07:46:42;1.67;;;1.33;;
15342;SDS011;7771;48.478;8.936;2023-04-24T07:49:10;2.60;;;1.37;;
15342;SDS011;7771;48.478;8.936;2023-04-24T07:51:38;2.00;;;1.30;;
15342;SDS011;7771;48.478;8.936;2023-04-24T07:54:05;2.37;;;1.20;;
15342;SDS011;7771;48.478;8.936;2023-04-24T07:56:34;2.10;;;1.10;;
15342;SDS011;7771;48.478;8.936;2023-04-24T07:59:00;2.40;;;1.40;;
15342;SDS011;7771;48.478;8.936;2023-04-24T08:01:28;2.07;;;1.33;;
15342;SDS011;7771;48.478;8.936;2023-04-24T08:03:57;4.80;;;1.43;;
15342;SDS011;7771;48.478;8.936;2023-04-24T08:06:25;5.90;;;1.30;;
15342;SDS011;7771;48.478;8.936;2023-04-24T08:08:52;1.40;;;1.30;;
15342;SDS011;7771;48.478;8.936;2023-04-24T08:11:19;3.43;;;1.47;;
15342;SDS011;7771;48.478;8.936;2023-04-24T08:13:47;5.47;;;1.63;;
15342;SDS011;7771;48.478;8.936;2023-04-24T08:16:14;5.70;;;1.73;;
15342;SDS011;7771;48.478;8.936;2023-04-24T08:18:41;1.87;;;1.30;;
15342;SDS011;7771;48.478;8.936;2023-04-24T08:21:09;2.67;;;1.43;;
15342;SDS011;7771;48.478;8.936;2023-04-24T08:23:35;1.50;;;1.37;;
15342;SDS011;7771;48.478;8.936;2023-04-24T08:26:02;3.63;;;1.83;;
15342;SDS011;7771;48.478;8.936;2023-04-24T08:28:30;1.80;;;1.30;;
15342;SDS011;7771;48.478;8.936;2023-04-24T08:30:58;4.90;;;2.37;;
15342;SDS011;7771;48.478;8.936;2023-04-24T08:33:24;3.90;;;1.60;;
15342;SDS011;7771;48.478;8.936;2023-04-24T08:35:52;4.80;;;1.60;;
15342;SDS011;7771;48.478;8.936;2023-04-24T08:38:18;1.90;;;1.43;;
15342;SDS011;7771;48.478;8.936;2023-04-24T08:40:47;1.30;;;1.02;;
15342;SDS011;7771;48.478;8.936;2023-04-24T08:43:13;3.83;;;1.42;;
15342;SDS011;7771;48.478;8.936;2023-04-24T08:45:40;1.90;;;1.50;;
15342;SDS011;7771;48.478;8.936;2023-04-24T08:48:07;2.58;;;1.40;;
15342;SDS011;7771;48.478;8.936;2023-04-24T08:50:34;2.75;;;1.62;;
15342;SDS011;7771;48.478;8.936;2023-04-24T08:53:01;1.87;;;1.27;;
15342;SDS011;7771;48.478;8.936;2023-04-24T08:55:29;1.65;;;1.40;;
15342;SDS011;7771;48.478;8.936;2023-04-24T08:57:55;1.37;;;1.27;;
15342;SDS011;7771;48.478;8.936;2023-04-24T09:00:23;1.92;;;1.65;;
15342;SDS011;7771;48.478;8.936;2023-04-24T09:02:49;1.25;;;1.15;;
15342;SDS011;7771;48.478;8.936;2023-04-24T09:05:18;3.30;;;1.60;;
15342;SDS011;7771;48.478;8.936;2023-04-24T09:07:45;1.80;;;1.40;;
15342;SDS011;7771;48.478;8.936;2023-04-24T09:10:13;1.97;;;1.40;;
15342;SDS011;7771;48.478;8.936;2023-04-24T09:12:40;1.53;;;1.43;;
15342;SDS011;7771;48.478;8.936;2023-04-24T09:15:08;3.03;;;1.30;;
15342;SDS011;7771;48.478;8.936;2023-04-24T09:17:35;1.92;;;1.50;;
15342;SDS011;7771;48.478;8.936;2023-04-24T09:20:04;2.90;;;1.45;;
15342;SDS011;7771;48.478;8.936;2023-04-24T09:22:31;1.30;;;1.20;;
15342;SDS011;7771;48.478;8.936;2023-04-24T09:24:59;2.15;;;1.40;;
15342;SDS011;7771;48.478;8.936;2023-04-24T09:27:27;1.77;;;1.35;;
15342;SDS011;7771;48.478;8.936;2023-04-24T09:29:55;1.73;;;1.15;;
15342;SDS011;7771;48.478;8.936;2023-04-24T09:32:22;1.65;;;1.27;;
15342;SDS011;7771;48.478;8.936;2023-04-24T09:34:48;3.17;;;1.23;;
15342;SDS011;7771;48.478;8.936;2023-04-24T09:37:27;1.40;;;1.30;;
15342;SDS011;7771;48.478;8.936;2023-04-24T09:40:07;2.25;;;1.17;;
15342;SDS011;7771;48.478;8.936;2023-04-24T09:42:18;2.17;;;1.20;;
15342;SDS011;7771;48.478;8.936;2023-04-24T09:44:46;1.75;;;1.23;;
15342;SDS011;7771;48.478;8.936;2023-04-24T09:47:13;1.62;;;1.42;;
15342;SDS011;7771;48.478;8.936;2023-04-24T09:49:39;4.05;;;1.73;;
15342;SDS011;7771;48.478;8.936;2023-04-24T09:54:54;3.15;;;1.25;;
15342;SDS011;7771;48.478;8.936;2023-04-24T09:57:21;2.65;;;1.50;;
15342;SDS011;7771;48.478;8.936;2023-04-24T09:59:47;3.50;;;1.45;;
15342;SDS011;7771;48.478;8.936;2023-04-24T10:02:16;2.65;;;1.48;;
15342;SDS011;7771;48.478;8.936;2023-04-24T10:04:53;2.58;;;1.50;;
15342;SDS011;7771;48.478;8.936;2023-04-24T10:07:12;3.45;;;1.20;;
15342;SDS011;7771;48.478;8.936;2023-04-24T10:09:39;1.30;;;0.98;;
15342;SDS011;7771;48.478;8.936;2023-04-24T10:12:05;3.95;;;1.48;;
15342;SDS011;7771;48.478;8.936;2023-04-24T10:14:32;3.33;;;2.15;;
15342;SDS011;7771;48.478;8.936;2023-04-24T10:17:00;1.23;;;1.05;;
15342;SDS011;7771;48.478;8.936;2023-04-24T10:19:28;1.23;;;1.00;;
15342;SDS011;7771;48.478;8.936;2023-04-24T10:21:56;3.42;;;1.20;;
15342;SDS011;7771;48.478;8.936;2023-04-24T10:24:24;1.67;;;1.10;;
15342;SDS011;7771;48.478;8.936;2023-04-24T10:26:52;4.15;;;1.10;;
15342;SDS011;7771;48.478;8.936;2023-04-24T10:29:19;1.55;;;1.00;;
15342;SDS011;7771;48.478;8.936;2023-04-24T10:31:46;2.13;;;1.30;;
15342;SDS011;7771;48.478;8.936;2023-04-24T10:34:13;2.17;;;1.27;;
15342;SDS011;7771;48.478;8.936;2023-04-24T10:36:41;1.27;;;1.13;;
15342;SDS011;7771;48.478;8.936;2023-04-24T10:39:11;2.37;;;1.10;;
15342;SDS011;7771;48.478;8.936;2023-04-24T10:41:38;2.40;;;1.07;;
15342;SDS011;7771;48.478;8.936;2023-04-24T10:44:08;1.60;;;1.10;;
15342;SDS011;7771;48.478;8.936;2023-04-24T10:46:35;2.70;;;1.10;;
15342;SDS011;7771;48.478;8.936;2023-04-24T10:49:04;2.27;;;1.10;;
15342;SDS011;7771;48.478;8.936;2023-04-24T10:56:50;2.47;;;1.00;;
15342;SDS011;7771;48.478;8.936;2023-04-24T11:01:53;2.30;;;1.20;;
15342;SDS011;7771;48.478;8.936;2023-04-24T11:04:28;1.10;;;1.00;;
15342;SDS011;7771;48.478;8.936;2023-04-24T11:06:46;1.07;;;0.93;;
15342;SDS011;7771;48.478;8.936;2023-04-24T11:09:14;1.10;;;1.00;;
15342;SDS011;7771;48.478;8.936;2023-04-24T11:11:44;2.07;;;1.10;;
15342;SDS011;7771;48.478;8.936;2023-04-24T11:14:15;1.07;;;0.97;;
15342;SDS011;7771;48.478;8.936;2023-04-24T11:16:43;2.00;;;1.30;;
15342;SDS011;7771;48.478;8.936;2023-04-24T11:19:18;3.03;;;1.10;;
15342;SDS011;7771;48.478;8.936;2023-04-24T11:21:46;1.20;;;1.03;;
15342;SDS011;7771;48.478;8.936;2023-04-24T11:26:54;1.50;;;0.90;;
15342;SDS011;7771;48.478;8.936;2023-04-24T11:29:20;1.80;;;1.00;;
15342;SDS011;7771;48.478;8.936;2023-04-24T11:31:47;2.73;;;1.17;;
15342;SDS011;7771;48.478;8.936;2023-04-24T11:34:14;3.13;;;1.00;;
15342;SDS011;7771;48.478;8.936;2023-04-24T11:36:43;2.10;;;1.00;;
15342;SDS011;7771;48.478;8.936;2023-04-24T11:39:09;1.07;;;0.80;;
15342;SDS011;7771;48.478;8.936;2023-04-24T11:41:35;3.03;;;1.00;;
15342;SDS011;7771;48.478;8.936;2023-04-24T11:44:03;1.00;;;0.80;;
15342;SDS011;7771;48.478;8.936;2023-04-24T11:46:30;1.37;;;1.00;;
15342;SDS011;7771;48.478;8.936;2023-04-24T11:48:57;1.70;;;1.07;;
15342;SDS011;7771;48.478;8.936;2023-04-24T11:51:26;1.77;;;1.00;;
15342;SDS011;7771;48.478;8.936;2023-04-24T11:53:53;1.60;;;1.17;;
15342;SDS011;7771;48.478;8.936;2023-04-24T11:56:21;1.50;;;1.07;;
15342;SDS011;7771;48.478;8.936;2023-04-24T11:58:47;1.07;;;1.00;;
15342;SDS011;7771;48.478;8.936;2023-04-24T12:01:14;2.57;;;1.07;;
15342;SDS011;7771;48.478;8.936;2023-04-24T12:03:43;1.20;;;1.03;;
15342;SDS011;7771;48.478;8.936;2023-04-24T12:06:10;2.80;;;1.47;;
15342;SDS011;7771;48.478;8.936;2023-04-24T12:08:38;0.97;;;0.80;;
15342;SDS011;7771;48.478;8.936;2023-04-24T12:11:05;1.57;;;1.00;;
15342;SDS011;7771;48.478;8.936;2023-04-24T12:13:32;1.33;;;1.00;;
15342;SDS011;7771;48.478;8.936;2023-04-24T12:15:59;0.97;;;0.87;;
15342;SDS011;7771;48.478;8.936;2023-04-24T12:18:26;4.20;;;1.20;;
15342;SDS011;7771;48.478;8.936;2023-04-24T12:20:53;1.17;;;1.07;;
15342;SDS011;7771;48.478;8.936;2023-04-24T12:23:38;1.20;;;1.00;;
15342;SDS011;7771;48.478;8.936;2023-04-24T12:26:06;1.77;;;1.10;;
15342;SDS011;7771;48.478;8.936;2023-04-24T12:28:35;1.50;;;1.00;;
15342;SDS011;7771;48.478;8.936;2023-04-24T12:31:00;1.10;;;0.97;;
15342;SDS011;7771;48.478;8.936;2023-04-24T12:33:27;1.40;;;1.10;;
15342;SDS011;7771;48.478;8.936;2023-04-24T12:35:55;1.10;;;1.00;;
15342;SDS011;7771;48.478;8.936;2023-04-24T12:38:23;2.30;;;1.07;;
15342;SDS011;7771;48.478;8.936;2023-04-24T12:40:58;1.47;;;1.33;;
15342;SDS011;7771;48.478;8.936;2023-04-24T12:43:18;1.63;;;1.20;;
15342;SDS011;7771;48.478;8.936;2023-04-24T12:45:44;2.57;;;1.17;;
15342;SDS011;7771;48.478;8.936;2023-04-24T12:48:11;3.70;;;1.40;;
15342;SDS011;7771;48.478;8.936;2023-04-24T12:50:38;1.70;;;1.30;;
15342;SDS011;7771;48.478;8.936;2023-04-24T12:53:06;7.10;;;1.20;;
15342;SDS011;7771;48.478;8.936;2023-04-24T12:55:32;1.37;;;1.27;;
15342;SDS011;7771;48.478;8.936;2023-04-24T12:58:00;1.77;;;1.20;;
15342;SDS011;7771;48.478;8.936;2023-04-24T13:00:28;2.90;;;1.50;;
15342;SDS011;7771;48.478;8.936;2023-04-24T13:02:56;2.43;;;1.50;;
15342;SDS011;7771;48.478;8.936;2023-04-24T13:05:22;3.87;;;1.60;;
15342;SDS011;7771;48.478;8.936;2023-04-24T13:07:50;5.60;;;3.53;;
15342;SDS011;7771;48.478;8.936;2023-04-24T13:10:18;2.13;;;1.47;;
15342;SDS011;7771;48.478;8.936;2023-04-24T13:12:44;1.13;;;1.03;;
15342;SDS011;7771;48.478;8.936;2023-04-24T13:15:11;2.57;;;1.30;;
15342;SDS011;7771;48.478;8.936;2023-04-24T13:17:38;2.17;;;1.40;;
15342;SDS011;7771;48.478;8.936;2023-04-24T13:20:07;2.23;;;1.00;;
15342;SDS011;7771;48.478;8.936;2023-04-24T13:22:33;1.20;;;1.10;;
15342;SDS011;7771;48.478;8.936;2023-04-24T13:25:00;2.30;;;1.03;;
15342;SDS011;7771;48.478;8.936;2023-04-24T13:27:27;1.30;;;1.20;;
15342;SDS011;7771;48.478;8.936;2023-04-24T13:29:58;1.80;;;1.30;;
15342;SDS011;7771;48.478;8.936;2023-04-24T13:32:24;1.33;;;1.00;;
15342;SDS011;7771;48.478;8.936;2023-04-24T13:34:51;2.70;;;1.20;;
15342;SDS011;7771;48.478;8.936;2023-04-24T13:37:17;1.50;;;1.20;;
15342;SDS011;7771;48.478;8.936;2023-04-24T13:39:45;2.43;;;1.30;;
15342;SDS011;7771;48.478;8.936;2023-04-24T13:42:13;1.70;;;1.30;;
15342;SDS011;7771;48.478;8.936;2023-04-24T13:44:40;1.83;;;1.33;;
15342;SDS011;7771;48.478;8.936;2023-04-24T13:47:08;1.80;;;1.20;;
15342;SDS011;7771;48.478;8.936;2023-04-24T13:49:35;1.40;;;1.27;;
15342;SDS011;7771;48.478;8.936;2023-04-24T13:52:03;3.80;;;1.70;;
15342;SDS011;7771;48.478;8.936;2023-04-24T13:54:32;1.37;;;1.27;;
15342;SDS011;7771;48.478;8.936;2023-04-24T13:57:00;1.63;;;1.00;;
15342;SDS011;7771;48.478;8.936;2023-04-24T13:59:30;2.60;;;1.20;;
15342;SDS011;7771;48.478;8.936;2023-04-24T14:01:58;1.27;;;1.17;;
15342;SDS011;7771;48.478;8.936;2023-04-24T14:04:26;1.60;;;1.40;;
15342;SDS011;7771;48.478;8.936;2023-04-24T14:06:52;2.50;;;2.17;;
15342;SDS011;7771;48.478;8.936;2023-04-24T14:09:20;2.90;;;1.10;;
15342;SDS011;7771;48.478;8.936;2023-04-24T14:11:46;1.30;;;1.20;;
15342;SDS011;7771;48.478;8.936;2023-04-24T14:14:13;2.57;;;1.40;;
15342;SDS011;7771;48.478;8.936;2023-04-24T14:16:40;2.30;;;1.50;;
15342;SDS011;7771;48.478;8.936;2023-04-24T14:19:07;2.60;;;1.47;;
15342;SDS011;7771;48.478;8.936;2023-04-24T14:21:34;2.47;;;1.40;;
15342;SDS011;7771;48.478;8.936;2023-04-24T14:24:01;1.60;;;1.50;;
15342;SDS011;7771;48.478;8.936;2023-04-24T14:26:29;1.73;;;1.40;;
15342;SDS011;7771;48.478;8.936;2023-04-24T14:28:55;2.77;;;1.33;;
15342;SDS011;7771;48.478;8.936;2023-04-24T14:31:24;2.27;;;1.30;;
15342;SDS011;7771;48.478;8.936;2023-04-24T14:33:50;2.07;;;1.30;;
15342;SDS011;7771;48.478;8.936;2023-04-24T14:36:17;1.40;;;1.10;;
15342;SDS011;7771;48.478;8.936;2023-04-24T14:38:44;1.40;;;1.30;;
15342;SDS011;7771;48.478;8.936;2023-04-24T14:41:10;2.00;;;1.40;;
15342;SDS011;7771;48.478;8.936;2023-04-24T14:43:38;1.73;;;1.40;;
15342;SDS011;7771;48.478;8.936;2023-04-24T14:46:05;2.53;;;1.47;;
15342;SDS011;7771;48.478;8.936;2023-04-24T14:48:32;2.43;;;1.20;;
15342;SDS011;7771;48.478;8.936;2023-04-24T14:51:00;1.37;;;1.20;;
15342;SDS011;7771;48.478;8.936;2023-04-24T14:53:26;1.53;;;1.23;;
15342;SDS011;7771;48.478;8.936;2023-04-24T14:55:54;3.10;;;1.40;;
15342;SDS011;7771;48.478;8.936;2023-04-24T14:58:20;3.50;;;1.90;;
15342;SDS011;7771;48.478;8.936;2023-04-24T15:00:47;1.73;;;1.43;;
15342;SDS011;7771;48.478;8.936;2023-04-24T15:03:14;1.43;;;1.20;;
15342;SDS011;7771;48.478;8.936;2023-04-24T15:05:41;1.80;;;1.40;;
15342;SDS011;7771;48.478;8.936;2023-04-24T15:08:08;3.40;;;1.90;;
15342;SDS011;7771;48.478;8.936;2023-04-24T15:10:35;2.93;;;2.30;;
15342;SDS011;7771;48.478;8.936;2023-04-24T15:13:02;2.20;;;2.00;;